sensor_id;sensor_type;location;lat;lon;timestamp;P1;durP1;ratioP1;P2;durP2;ratioP2
72728;SDS011;60843;52.062;4.508;2023-08-06T00:01:11;11.07;;;5.93;;
72728;SDS011;60843;52.062;4.508;2023-08-06T00:03:36;9.35;;;6.15;;
72728;SDS011;60843;52.062;4.508;2023-08-06T00:06:02;12.70;;;6.30;;
72728;SDS011;60843;52.062;4.508;2023-08-06T00:08:27;9.25;;;5.78;;
72728;SDS011;60843;52.062;4.508;2023-08-06T00:10:52;11.73;;;6.07;;
72728;SDS011;60843;52.062;4.508;2023-08-06T00:13:18;14.23;;;6.00;;
72728;SDS011;60843;52.062;4.508;2023-08-06T00:15:43;9.70;;;5.73;;
72728;SDS011;60843;52.062;4.508;2023-08-06T00:18:08;11.03;;;5.67;;
72728;SDS011;60843;52.062;4.508;2023-08-06T00:20:34;11.93;;;6.07;;
72728;SDS011;60843;52.062;4.508;2023-08-06T00:22:59;13.00;;;6.23;;
72728;SDS011;60843;52.062;4.508;2023-08-06T00:25:24;11.30;;;6.33;;
72728;SDS011;60843;52.062;4.508;2023-08-06T00:27:50;10.17;;;6.20;;
72728;SDS011;60843;52.062;4.508;2023-08-06T00:30:15;11.77;;;6.17;;
72728;SDS011;60843;52.062;4.508;2023-08-06T00:32:41;11.35;;;6.55;;
72728;SDS011;60843;52.062;4.508;2023-08-06T00:35:06;11.23;;;6.80;;
72728;SDS011;60843;52.062;4.508;2023-08-06T00:37:32;11.20;;;6.07;;
72728;SDS011;60843;52.062;4.508;2023-08-06T00:39:57;10.53;;;6.20;;
72728;SDS011;60843;52.062;4.508;2023-08-06T00:42:22;11.43;;;6.07;;
72728;SDS011;60843;52.062;4.508;2023-08-06T00:44:48;11.47;;;6.00;;
72728;SDS011;60843;52.062;4.508;2023-08-06T00:47:13;12.90;;;5.93;;
72728;SDS011;60843;52.062;4.508;2023-08-06T00:49:39;13.25;;;6.78;;
72728;SDS011;60843;52.062;4.508;2023-08-06T00:52:05;14.10;;;6.57;;
72728;SDS011;60843;52.062;4.508;2023-08-06T00:54:32;12.35;;;6.65;;
72728;SDS011;60843;52.062;4.508;2023-08-06T00:56:58;11.73;;;6.68;;
72728;SDS011;60843;52.062;4.508;2023-08-06T00:59:24;12.02;;;6.25;;
72728;SDS011;60843;52.062;4.508;2023-08-06T01:01:50;10.55;;;6.03;;
72728;SDS011;60843;52.062;4.508;2023-08-06T01:04:16;12.13;;;6.20;;
72728;SDS011;60843;52.062;4.508;2023-08-06T01:06:49;13.63;;;6.87;;
72728;SDS011;60843;52.062;4.508;2023-08-06T01:17:25;10.70;;;6.07;;
72728;SDS011;60843;52.062;4.508;2023-08-06T01:19:52;11.93;;;6.45;;
72728;SDS011;60843;52.062;4.508;2023-08-06T01:22:17;13.13;;;6.55;;
72728;SDS011;60843;52.062;4.508;2023-08-06T01:24:44;9.85;;;5.45;;
72728;SDS011;60843;52.062;4.508;2023-08-06T01:27:14;10.77;;;5.28;;
72728;SDS011;60843;52.062;4.508;2023-08-06T01:29:47;9.90;;;5.15;;
72728;SDS011;60843;52.062;4.508;2023-08-06T01:32:15;9.52;;;5.72;;
72728;SDS011;60843;52.062;4.508;2023-08-06T01:34:41;8.95;;;5.15;;
72728;SDS011;60843;52.062;4.508;2023-08-06T01:37:09;9.68;;;5.70;;
72728;SDS011;60843;52.062;4.508;2023-08-06T01:39:35;10.82;;;5.35;;
72728;SDS011;60843;52.062;4.508;2023-08-06T01:42:01;10.48;;;6.10;;
72728;SDS011;60843;52.062;4.508;2023-08-06T01:44:26;11.05;;;5.85;;
72728;SDS011;60843;52.062;4.508;2023-08-06T01:46:51;11.03;;;5.77;;
72728;SDS011;60843;52.062;4.508;2023-08-06T01:49:17;12.60;;;5.72;;
72728;SDS011;60843;52.062;4.508;2023-08-06T01:51:42;9.87;;;5.60;;
72728;SDS011;60843;52.062;4.508;2023-08-06T01:54:07;9.63;;;6.00;;
72728;SDS011;60843;52.062;4.508;2023-08-06T01:56:33;9.23;;;5.07;;
72728;SDS011;60843;52.062;4.508;2023-08-06T01:58:58;8.60;;;4.50;;
72728;SDS011;60843;52.062;4.508;2023-08-06T02:01:24;9.90;;;5.63;;
72728;SDS011;60843;52.062;4.508;2023-08-06T02:03:49;8.93;;;4.77;;
72728;SDS011;60843;52.062;4.508;2023-08-06T02:06:14;9.47;;;4.70;;
72728;SDS011;60843;52.062;4.508;2023-08-06T02:08:40;9.23;;;4.83;;
72728;SDS011;60843;52.062;4.508;2023-08-06T02:11:05;11.63;;;5.27;;
72728;SDS011;60843;52.062;4.508;2023-08-06T02:13:30;10.03;;;4.93;;
72728;SDS011;60843;52.062;4.508;2023-08-06T02:15:55;10.47;;;4.77;;
72728;SDS011;60843;52.062;4.508;2023-08-06T02:18:21;8.77;;;4.40;;
72728;SDS011;60843;52.062;4.508;2023-08-06T02:20:56;8.20;;;4.53;;
72728;SDS011;60843;52.062;4.508;2023-08-06T02:23:22;8.57;;;4.70;;
72728;SDS011;60843;52.062;4.508;2023-08-06T02:25:53;7.25;;;3.63;;
72728;SDS011;60843;52.062;4.508;2023-08-06T02:28:22;8.07;;;3.92;;
72728;SDS011;60843;52.062;4.508;2023-08-06T02:30:51;9.33;;;4.50;;
72728;SDS011;60843;52.062;4.508;2023-08-06T02:33:16;7.85;;;3.75;;
72728;SDS011;60843;52.062;4.508;2023-08-06T02:35:42;7.67;;;3.73;;
72728;SDS011;60843;52.062;4.508;2023-08-06T02:38:07;6.20;;;3.47;;
72728;SDS011;60843;52.062;4.508;2023-08-06T02:40:32;6.10;;;3.07;;
72728;SDS011;60843;52.062;4.508;2023-08-06T02:42:58;5.37;;;2.93;;
72728;SDS011;60843;52.062;4.508;2023-08-06T02:45:23;6.37;;;3.03;;
72728;SDS011;60843;52.062;4.508;2023-08-06T02:47:48;4.82;;;2.88;;
72728;SDS011;60843;52.062;4.508;2023-08-06T02:50:14;9.20;;;3.20;;
72728;SDS011;60843;52.062;4.508;2023-08-06T02:52:39;5.25;;;2.50;;
72728;SDS011;60843;52.062;4.508;2023-08-06T02:55:06;0.17;;;0.13;;
72728;SDS011;60843;52.062;4.508;2023-08-06T02:57:32;0.00;;;0.00;;
72728;SDS011;60843;52.062;4.508;2023-08-06T02:59:57;0.10;;;0.10;;
72728;SDS011;60843;52.062;4.508;2023-08-06T03:02:22;0.00;;;0.00;;
72728;SDS011;60843;52.062;4.508;2023-08-06T03:04:48;0.00;;;0.00;;
72728;SDS011;60843;52.062;4.508;2023-08-06T03:07:13;0.00;;;0.00;;
72728;SDS011;60843;52.062;4.508;2023-08-06T03:09:39;0.20;;;0.20;;
72728;SDS011;60843;52.062;4.508;2023-08-06T03:12:04;0.00;;;0.00;;
72728;SDS011;60843;52.062;4.508;2023-08-06T03:14:30;0.00;;;0.00;;
72728;SDS011;60843;52.062;4.508;2023-08-06T03:16:55;0.10;;;0.10;;
72728;SDS011;60843;52.062;4.508;2023-08-06T03:19:20;0.00;;;0.00;;
72728;SDS011;60843;52.062;4.508;2023-08-06T03:21:46;0.00;;;0.00;;
72728;SDS011;60843;52.062;4.508;2023-08-06T03:24:13;0.00;;;0.00;;
72728;SDS011;60843;52.062;4.508;2023-08-06T03:26:38;0.00;;;0.00;;
72728;SDS011;60843;52.062;4.508;2023-08-06T03:29:04;0.00;;;0.00;;
72728;SDS011;60843;52.062;4.508;2023-08-06T03:31:29;0.00;;;0.00;;
72728;SDS011;60843;52.062;4.508;2023-08-06T03:33:54;0.37;;;0.20;;
72728;SDS011;60843;52.062;4.508;2023-08-06T03:36:20;0.10;;;0.10;;
72728;SDS011;60843;52.062;4.508;2023-08-06T03:38:45;0.00;;;0.00;;
72728;SDS011;60843;52.062;4.508;2023-08-06T03:41:11;0.10;;;0.10;;
72728;SDS011;60843;52.062;4.508;2023-08-06T03:43:36;0.20;;;0.20;;
72728;SDS011;60843;52.062;4.508;2023-08-06T03:46:01;0.00;;;0.00;;
72728;SDS011;60843;52.062;4.508;2023-08-06T03:48:26;1.50;;;0.30;;
72728;SDS011;60843;52.062;4.508;2023-08-06T03:50:52;0.20;;;0.20;;
72728;SDS011;60843;52.062;4.508;2023-08-06T03:53:17;0.00;;;0.00;;
72728;SDS011;60843;52.062;4.508;2023-08-06T03:55:42;0.10;;;0.10;;
72728;SDS011;60843;52.062;4.508;2023-08-06T03:58:08;1.30;;;0.37;;
72728;SDS011;60843;52.062;4.508;2023-08-06T04:00:33;0.07;;;0.07;;
72728;SDS011;60843;52.062;4.508;2023-08-06T04:02:59;0.60;;;0.20;;
72728;SDS011;60843;52.062;4.508;2023-08-06T04:05:24;0.00;;;0.00;;
72728;SDS011;60843;52.062;4.508;2023-08-06T04:07:49;0.10;;;0.10;;
72728;SDS011;60843;52.062;4.508;2023-08-06T04:10:14;0.00;;;0.00;;
72728;SDS011;60843;52.062;4.508;2023-08-06T04:12:40;0.00;;;0.00;;
72728;SDS011;60843;52.062;4.508;2023-08-06T04:15:05;0.00;;;0.00;;
72728;SDS011;60843;52.062;4.508;2023-08-06T04:17:31;0.00;;;0.00;;
72728;SDS011;60843;52.062;4.508;2023-08-06T04:19:56;0.10;;;0.10;;
72728;SDS011;60843;52.062;4.508;2023-08-06T04:22:25;0.00;;;0.00;;
72728;SDS011;60843;52.062;4.508;2023-08-06T04:24:51;0.00;;;0.00;;
72728;SDS011;60843;52.062;4.508;2023-08-06T04:27:17;0.03;;;0.03;;
72728;SDS011;60843;52.062;4.508;2023-08-06T04:29:43;0.00;;;0.00;;
72728;SDS011;60843;52.062;4.508;2023-08-06T04:32:09;0.00;;;0.00;;
72728;SDS011;60843;52.062;4.508;2023-08-06T04:34:35;0.00;;;0.00;;
72728;SDS011;60843;52.062;4.508;2023-08-06T04:37:02;0.03;;;0.03;;
72728;SDS011;60843;52.062;4.508;2023-08-06T04:39:28;0.00;;;0.00;;
72728;SDS011;60843;52.062;4.508;2023-08-06T04:41:53;0.00;;;0.00;;
72728;SDS011;60843;52.062;4.508;2023-08-06T04:44:18;0.00;;;0.00;;
72728;SDS011;60843;52.062;4.508;2023-08-06T04:46:44;0.00;;;0.00;;
72728;SDS011;60843;52.062;4.508;2023-08-06T04:49:09;0.00;;;0.00;;
72728;SDS011;60843;52.062;4.508;2023-08-06T04:51:34;0.00;;;0.00;;
72728;SDS011;60843;52.062;4.508;2023-08-06T04:54:00;0.35;;;0.35;;
72728;SDS011;60843;52.062;4.508;2023-08-06T04:56:25;0.00;;;0.00;;
72728;SDS011;60843;52.062;4.508;2023-08-06T04:58:51;0.00;;;0.00;;
72728;SDS011;60843;52.062;4.508;2023-08-06T05:01:16;0.00;;;0.00;;
72728;SDS011;60843;52.062;4.508;2023-08-06T05:03:42;0.00;;;0.00;;
72728;SDS011;60843;52.062;4.508;2023-08-06T05:06:07;0.00;;;0.00;;
72728;SDS011;60843;52.062;4.508;2023-08-06T05:08:33;0.10;;;0.10;;
72728;SDS011;60843;52.062;4.508;2023-08-06T05:10:58;0.00;;;0.00;;
72728;SDS011;60843;52.062;4.508;2023-08-06T05:13:23;0.00;;;0.00;;
72728;SDS011;60843;52.062;4.508;2023-08-06T05:15:50;0.10;;;0.10;;
72728;SDS011;60843;52.062;4.508;2023-08-06T05:18:15;0.10;;;0.10;;
72728;SDS011;60843;52.062;4.508;2023-08-06T05:20:42;0.00;;;0.00;;
72728;SDS011;60843;52.062;4.508;2023-08-06T05:23:07;0.00;;;0.00;;
72728;SDS011;60843;52.062;4.508;2023-08-06T05:25:36;0.00;;;0.00;;
72728;SDS011;60843;52.062;4.508;2023-08-06T05:28:04;0.10;;;0.10;;
72728;SDS011;60843;52.062;4.508;2023-08-06T05:30:30;0.00;;;0.00;;
72728;SDS011;60843;52.062;4.508;2023-08-06T05:32:55;0.10;;;0.10;;
72728;SDS011;60843;52.062;4.508;2023-08-06T05:35:21;0.00;;;0.00;;
72728;SDS011;60843;52.062;4.508;2023-08-06T05:37:47;0.15;;;0.15;;
72728;SDS011;60843;52.062;4.508;2023-08-06T05:40:12;0.03;;;0.03;;
72728;SDS011;60843;52.062;4.508;2023-08-06T05:42:39;0.30;;;0.30;;
72728;SDS011;60843;52.062;4.508;2023-08-06T05:45:04;0.00;;;0.00;;
72728;SDS011;60843;52.062;4.508;2023-08-06T05:47:30;0.10;;;0.10;;
72728;SDS011;60843;52.062;4.508;2023-08-06T05:49:55;0.00;;;0.00;;
72728;SDS011;60843;52.062;4.508;2023-08-06T05:52:21;0.03;;;0.03;;
72728;SDS011;60843;52.062;4.508;2023-08-06T05:54:46;0.00;;;0.00;;
72728;SDS011;60843;52.062;4.508;2023-08-06T05:57:11;0.00;;;0.00;;
72728;SDS011;60843;52.062;4.508;2023-08-06T05:59:37;0.10;;;0.10;;
72728;SDS011;60843;52.062;4.508;2023-08-06T06:02:02;0.00;;;0.00;;
72728;SDS011;60843;52.062;4.508;2023-08-06T06:04:28;0.00;;;0.00;;
72728;SDS011;60843;52.062;4.508;2023-08-06T06:06:53;0.05;;;0.05;;
72728;SDS011;60843;52.062;4.508;2023-08-06T06:09:18;0.00;;;0.00;;
72728;SDS011;60843;52.062;4.508;2023-08-06T06:11:44;0.00;;;0.00;;
72728;SDS011;60843;52.062;4.508;2023-08-06T06:14:09;0.00;;;0.00;;
72728;SDS011;60843;52.062;4.508;2023-08-06T06:16:34;0.00;;;0.00;;
72728;SDS011;60843;52.062;4.508;2023-08-06T06:19:00;0.00;;;0.00;;
72728;SDS011;60843;52.062;4.508;2023-08-06T06:21:25;0.00;;;0.00;;
72728;SDS011;60843;52.062;4.508;2023-08-06T06:23:50;0.10;;;0.10;;
72728;SDS011;60843;52.062;4.508;2023-08-06T06:26:19;0.00;;;0.00;;
72728;SDS011;60843;52.062;4.508;2023-08-06T06:28:44;0.00;;;0.00;;
72728;SDS011;60843;52.062;4.508;2023-08-06T06:31:09;0.00;;;0.00;;
72728;SDS011;60843;52.062;4.508;2023-08-06T06:33:35;0.00;;;0.00;;
72728;SDS011;60843;52.062;4.508;2023-08-06T06:36:01;0.45;;;0.25;;
72728;SDS011;60843;52.062;4.508;2023-08-06T06:38:28;0.00;;;0.00;;
72728;SDS011;60843;52.062;4.508;2023-08-06T06:40:54;0.00;;;0.00;;
72728;SDS011;60843;52.062;4.508;2023-08-06T06:43:20;0.00;;;0.00;;
72728;SDS011;60843;52.062;4.508;2023-08-06T06:45:46;0.28;;;0.28;;
72728;SDS011;60843;52.062;4.508;2023-08-06T06:48:11;0.00;;;0.00;;
72728;SDS011;60843;52.062;4.508;2023-08-06T06:50:36;0.00;;;0.00;;
72728;SDS011;60843;52.062;4.508;2023-08-06T06:53:04;0.05;;;0.05;;
72728;SDS011;60843;52.062;4.508;2023-08-06T06:55:29;0.00;;;0.00;;
72728;SDS011;60843;52.062;4.508;2023-08-06T06:57:54;0.00;;;0.00;;
72728;SDS011;60843;52.062;4.508;2023-08-06T07:00:20;0.00;;;0.00;;
72728;SDS011;60843;52.062;4.508;2023-08-06T07:02:45;0.00;;;0.00;;
72728;SDS011;60843;52.062;4.508;2023-08-06T07:05:11;0.00;;;0.00;;
72728;SDS011;60843;52.062;4.508;2023-08-06T07:07:36;0.20;;;0.20;;
72728;SDS011;60843;52.062;4.508;2023-08-06T07:10:02;0.10;;;0.10;;
72728;SDS011;60843;52.062;4.508;2023-08-06T07:12:28;0.00;;;0.00;;
72728;SDS011;60843;52.062;4.508;2023-08-06T07:14:53;0.00;;;0.00;;
72728;SDS011;60843;52.062;4.508;2023-08-06T07:17:18;0.00;;;0.00;;
72728;SDS011;60843;52.062;4.508;2023-08-06T07:19:44;0.00;;;0.00;;
72728;SDS011;60843;52.062;4.508;2023-08-06T07:22:09;0.00;;;0.00;;
72728;SDS011;60843;52.062;4.508;2023-08-06T07:24:34;0.00;;;0.00;;
72728;SDS011;60843;52.062;4.508;2023-08-06T07:27:00;0.00;;;0.00;;
72728;SDS011;60843;52.062;4.508;2023-08-06T07:29:26;0.00;;;0.00;;
72728;SDS011;60843;52.062;4.508;2023-08-06T07:31:51;0.00;;;0.00;;
72728;SDS011;60843;52.062;4.508;2023-08-06T07:34:17;0.00;;;0.00;;
72728;SDS011;60843;52.062;4.508;2023-08-06T07:36:45;1.50;;;0.40;;
72728;SDS011;60843;52.062;4.508;2023-08-06T07:39:11;0.00;;;0.00;;
72728;SDS011;60843;52.062;4.508;2023-08-06T07:41:36;0.13;;;0.13;;
72728;SDS011;60843;52.062;4.508;2023-08-06T07:44:02;0.00;;;0.00;;
72728;SDS011;60843;52.062;4.508;2023-08-06T07:46:27;0.00;;;0.00;;
72728;SDS011;60843;52.062;4.508;2023-08-06T07:48:53;0.00;;;0.00;;
72728;SDS011;60843;52.062;4.508;2023-08-06T07:51:18;0.00;;;0.00;;
72728;SDS011;60843;52.062;4.508;2023-08-06T07:53:43;0.00;;;0.00;;
72728;SDS011;60843;52.062;4.508;2023-08-06T07:56:10;0.08;;;0.08;;
72728;SDS011;60843;52.062;4.508;2023-08-06T07:58:35;0.00;;;0.00;;
72728;SDS011;60843;52.062;4.508;2023-08-06T08:01:01;0.10;;;0.10;;
72728;SDS011;60843;52.062;4.508;2023-08-06T08:03:26;0.00;;;0.00;;
72728;SDS011;60843;52.062;4.508;2023-08-06T08:05:53;0.00;;;0.00;;
72728;SDS011;60843;52.062;4.508;2023-08-06T08:08:21;0.65;;;0.43;;
72728;SDS011;60843;52.062;4.508;2023-08-06T08:10:46;0.28;;;0.10;;
72728;SDS011;60843;52.062;4.508;2023-08-06T08:13:12;0.00;;;0.00;;
72728;SDS011;60843;52.062;4.508;2023-08-06T08:15:37;0.20;;;0.20;;
72728;SDS011;60843;52.062;4.508;2023-08-06T08:18:02;0.28;;;0.28;;
72728;SDS011;60843;52.062;4.508;2023-08-06T08:20:28;0.00;;;0.00;;
72728;SDS011;60843;52.062;4.508;2023-08-06T08:22:57;0.00;;;0.00;;
72728;SDS011;60843;52.062;4.508;2023-08-06T08:25:23;0.03;;;0.03;;
72728;SDS011;60843;52.062;4.508;2023-08-06T08:27:48;0.00;;;0.00;;
72728;SDS011;60843;52.062;4.508;2023-08-06T08:30:13;0.23;;;0.23;;
72728;SDS011;60843;52.062;4.508;2023-08-06T08:32:39;0.00;;;0.00;;
72728;SDS011;60843;52.062;4.508;2023-08-06T08:35:04;0.00;;;0.00;;
72728;SDS011;60843;52.062;4.508;2023-08-06T08:37:29;0.63;;;0.63;;
72728;SDS011;60843;52.062;4.508;2023-08-06T08:39:55;0.07;;;0.07;;
72728;SDS011;60843;52.062;4.508;2023-08-06T08:42:20;0.00;;;0.00;;
72728;SDS011;60843;52.062;4.508;2023-08-06T08:44:46;0.00;;;0.00;;
72728;SDS011;60843;52.062;4.508;2023-08-06T08:47:11;0.00;;;0.00;;
72728;SDS011;60843;52.062;4.508;2023-08-06T08:49:37;0.00;;;0.00;;
72728;SDS011;60843;52.062;4.508;2023-08-06T08:52:04;0.00;;;0.00;;
72728;SDS011;60843;52.062;4.508;2023-08-06T08:54:34;0.00;;;0.00;;
72728;SDS011;60843;52.062;4.508;2023-08-06T08:57:00;0.00;;;0.00;;
72728;SDS011;60843;52.062;4.508;2023-08-06T08:59:26;0.00;;;0.00;;
72728;SDS011;60843;52.062;4.508;2023-08-06T09:01:51;0.00;;;0.00;;
72728;SDS011;60843;52.062;4.508;2023-08-06T09:04:18;0.30;;;0.30;;
72728;SDS011;60843;52.062;4.508;2023-08-06T09:06:43;0.30;;;0.30;;
72728;SDS011;60843;52.062;4.508;2023-08-06T09:11:39;0.00;;;0.00;;
72728;SDS011;60843;52.062;4.508;2023-08-06T09:14:09;0.08;;;0.08;;
72728;SDS011;60843;52.062;4.508;2023-08-06T09:16:36;0.00;;;0.00;;
72728;SDS011;60843;52.062;4.508;2023-08-06T09:19:11;0.05;;;0.05;;
72728;SDS011;60843;52.062;4.508;2023-08-06T09:21:43;0.00;;;0.00;;
72728;SDS011;60843;52.062;4.508;2023-08-06T09:24:11;0.00;;;0.00;;
72728;SDS011;60843;52.062;4.508;2023-08-06T09:26:37;0.20;;;0.20;;
72728;SDS011;60843;52.062;4.508;2023-08-06T09:29:07;0.03;;;0.03;;
72728;SDS011;60843;52.062;4.508;2023-08-06T09:31:34;0.10;;;0.10;;
72728;SDS011;60843;52.062;4.508;2023-08-06T09:34:21;0.00;;;0.00;;
72728;SDS011;60843;52.062;4.508;2023-08-06T09:36:53;0.00;;;0.00;;
72728;SDS011;60843;52.062;4.508;2023-08-06T09:39:20;0.00;;;0.00;;
72728;SDS011;60843;52.062;4.508;2023-08-06T09:41:55;0.13;;;0.13;;
72728;SDS011;60843;52.062;4.508;2023-08-06T09:44:22;0.00;;;0.00;;
72728;SDS011;60843;52.062;4.508;2023-08-06T09:46:51;0.00;;;0.00;;
72728;SDS011;60843;52.062;4.508;2023-08-06T09:49:18;0.20;;;0.20;;
72728;SDS011;60843;52.062;4.508;2023-08-06T09:51:45;0.20;;;0.20;;
72728;SDS011;60843;52.062;4.508;2023-08-06T09:54:14;0.00;;;0.00;;
72728;SDS011;60843;52.062;4.508;2023-08-06T09:56:40;0.22;;;0.22;;
72728;SDS011;60843;52.062;4.508;2023-08-06T09:59:07;0.00;;;0.00;;
72728;SDS011;60843;52.062;4.508;2023-08-06T10:01:33;0.00;;;0.00;;
72728;SDS011;60843;52.062;4.508;2023-08-06T10:04:00;0.00;;;0.00;;
72728;SDS011;60843;52.062;4.508;2023-08-06T10:06:26;0.05;;;0.05;;
72728;SDS011;60843;52.062;4.508;2023-08-06T10:08:51;0.00;;;0.00;;
72728;SDS011;60843;52.062;4.508;2023-08-06T10:11:17;0.00;;;0.00;;
72728;SDS011;60843;52.062;4.508;2023-08-06T10:13:42;0.00;;;0.00;;
72728;SDS011;60843;52.062;4.508;2023-08-06T10:16:08;0.00;;;0.00;;
72728;SDS011;60843;52.062;4.508;2023-08-06T10:18:35;0.00;;;0.00;;
72728;SDS011;60843;52.062;4.508;2023-08-06T10:21:02;0.00;;;0.00;;
72728;SDS011;60843;52.062;4.508;2023-08-06T10:23:34;0.00;;;0.00;;
72728;SDS011;60843;52.062;4.508;2023-08-06T10:26:00;0.00;;;0.00;;
72728;SDS011;60843;52.062;4.508;2023-08-06T10:28:38;0.00;;;0.00;;
72728;SDS011;60843;52.062;4.508;2023-08-06T10:31:04;0.00;;;0.00;;
72728;SDS011;60843;52.062;4.508;2023-08-06T10:33:40;0.00;;;0.00;;
72728;SDS011;60843;52.062;4.508;2023-08-06T10:36:08;0.00;;;0.00;;
72728;SDS011;60843;52.062;4.508;2023-08-06T10:38:35;1.08;;;0.50;;
72728;SDS011;60843;52.062;4.508;2023-08-06T10:41:02;1.90;;;0.60;;
72728;SDS011;60843;52.062;4.508;2023-08-06T10:45:55;1.48;;;0.93;;
72728;SDS011;60843;52.062;4.508;2023-08-06T10:51:07;4.65;;;0.75;;
72728;SDS011;60843;52.062;4.508;2023-08-06T10:53:34;2.58;;;0.77;;
72728;SDS011;60843;52.062;4.508;2023-08-06T10:56:00;1.67;;;0.70;;
72728;SDS011;60843;52.062;4.508;2023-08-06T10:58:30;1.27;;;0.70;;
72728;SDS011;60843;52.062;4.508;2023-08-06T11:00:56;0.65;;;0.50;;
72728;SDS011;60843;52.062;4.508;2023-08-06T11:03:22;2.63;;;0.80;;
72728;SDS011;60843;52.062;4.508;2023-08-06T11:05:48;2.45;;;1.05;;
72728;SDS011;60843;52.062;4.508;2023-08-06T11:08:33;3.95;;;1.00;;
72728;SDS011;60843;52.062;4.508;2023-08-06T11:11:12;0.88;;;0.55;;
72728;SDS011;60843;52.062;4.508;2023-08-06T11:13:42;2.40;;;0.73;;
72728;SDS011;60843;52.062;4.508;2023-08-06T11:16:14;1.33;;;0.77;;
72728;SDS011;60843;52.062;4.508;2023-08-06T11:18:40;0.95;;;0.38;;
72728;SDS011;60843;52.062;4.508;2023-08-06T11:21:09;1.10;;;0.52;;
72728;SDS011;60843;52.062;4.508;2023-08-06T11:23:35;1.73;;;0.63;;
72728;SDS011;60843;52.062;4.508;2023-08-06T11:26:00;1.00;;;0.40;;
72728;SDS011;60843;52.062;4.508;2023-08-06T11:28:25;1.25;;;0.60;;
72728;SDS011;60843;52.062;4.508;2023-08-06T11:30:51;1.00;;;0.45;;
72728;SDS011;60843;52.062;4.508;2023-08-06T11:33:26;2.13;;;0.70;;
72728;SDS011;60843;52.062;4.508;2023-08-06T11:35:52;1.38;;;0.55;;
72728;SDS011;60843;52.062;4.508;2023-08-06T11:38:21;0.95;;;0.32;;
72728;SDS011;60843;52.062;4.508;2023-08-06T11:40:47;1.27;;;0.50;;
72728;SDS011;60843;52.062;4.508;2023-08-06T11:43:12;0.57;;;0.43;;
72728;SDS011;60843;52.062;4.508;2023-08-06T11:45:38;0.70;;;0.32;;
72728;SDS011;60843;52.062;4.508;2023-08-06T11:48:04;0.95;;;0.50;;
72728;SDS011;60843;52.062;4.508;2023-08-06T11:50:30;0.43;;;0.38;;
72728;SDS011;60843;52.062;4.508;2023-08-06T11:52:59;2.40;;;0.50;;
72728;SDS011;60843;52.062;4.508;2023-08-06T11:55:26;2.90;;;0.50;;
72728;SDS011;60843;52.062;4.508;2023-08-06T11:57:53;0.28;;;0.20;;
72728;SDS011;60843;52.062;4.508;2023-08-06T12:00:19;1.92;;;0.50;;
72728;SDS011;60843;52.062;4.508;2023-08-06T12:05:15;1.17;;;0.32;;
72728;SDS011;60843;52.062;4.508;2023-08-06T12:07:42;1.50;;;0.30;;
72728;SDS011;60843;52.062;4.508;2023-08-06T12:10:09;1.00;;;0.38;;
72728;SDS011;60843;52.062;4.508;2023-08-06T12:12:35;0.82;;;0.40;;
72728;SDS011;60843;52.062;4.508;2023-08-06T12:15:01;0.30;;;0.10;;
72728;SDS011;60843;52.062;4.508;2023-08-06T12:17:26;1.75;;;0.60;;
72728;SDS011;60843;52.062;4.508;2023-08-06T12:19:51;1.53;;;0.40;;
72728;SDS011;60843;52.062;4.508;2023-08-06T12:22:17;0.63;;;0.38;;
72728;SDS011;60843;52.062;4.508;2023-08-06T12:24:43;0.63;;;0.20;;
72728;SDS011;60843;52.062;4.508;2023-08-06T12:27:09;0.30;;;0.30;;
72728;SDS011;60843;52.062;4.508;2023-08-06T12:29:35;2.30;;;0.30;;
72728;SDS011;60843;52.062;4.508;2023-08-06T12:32:01;0.35;;;0.13;;
72728;SDS011;60843;52.062;4.508;2023-08-06T12:34:27;1.27;;;0.30;;
72728;SDS011;60843;52.062;4.508;2023-08-06T12:36:52;0.87;;;0.30;;
72728;SDS011;60843;52.062;4.508;2023-08-06T12:39:17;1.13;;;0.50;;
72728;SDS011;60843;52.062;4.508;2023-08-06T12:41:43;2.03;;;0.50;;
72728;SDS011;60843;52.062;4.508;2023-08-06T12:44:10;1.17;;;0.38;;
72728;SDS011;60843;52.062;4.508;2023-08-06T12:46:36;1.27;;;0.40;;
72728;SDS011;60843;52.062;4.508;2023-08-06T12:49:02;1.47;;;0.30;;
72728;SDS011;60843;52.062;4.508;2023-08-06T12:51:27;0.77;;;0.30;;
72728;SDS011;60843;52.062;4.508;2023-08-06T12:53:52;1.47;;;0.80;;
72728;SDS011;60843;52.062;4.508;2023-08-06T12:56:18;1.00;;;0.37;;
72728;SDS011;60843;52.062;4.508;2023-08-06T12:58:43;0.67;;;0.33;;
72728;SDS011;60843;52.062;4.508;2023-08-06T13:01:09;0.52;;;0.20;;
72728;SDS011;60843;52.062;4.508;2023-08-06T13:03:34;0.80;;;0.40;;
72728;SDS011;60843;52.062;4.508;2023-08-06T13:06:00;0.63;;;0.50;;
72728;SDS011;60843;52.062;4.508;2023-08-06T13:08:25;0.30;;;0.20;;
72728;SDS011;60843;52.062;4.508;2023-08-06T13:10:50;1.20;;;0.40;;
72728;SDS011;60843;52.062;4.508;2023-08-06T13:13:16;0.35;;;0.20;;
72728;SDS011;60843;52.062;4.508;2023-08-06T13:15:41;0.87;;;0.53;;
72728;SDS011;60843;52.062;4.508;2023-08-06T13:18:06;0.50;;;0.30;;
72728;SDS011;60843;52.062;4.508;2023-08-06T13:20:32;0.77;;;0.40;;
72728;SDS011;60843;52.062;4.508;2023-08-06T13:22:59;0.50;;;0.30;;
72728;SDS011;60843;52.062;4.508;2023-08-06T13:25:27;1.27;;;0.40;;
72728;SDS011;60843;52.062;4.508;2023-08-06T13:27:53;2.58;;;0.20;;
72728;SDS011;60843;52.062;4.508;2023-08-06T13:30:19;1.10;;;0.30;;
72728;SDS011;60843;52.062;4.508;2023-08-06T13:32:45;3.35;;;0.52;;
72728;SDS011;60843;52.062;4.508;2023-08-06T13:35:11;3.20;;;0.32;;
72728;SDS011;60843;52.062;4.508;2023-08-06T13:37:36;1.67;;;0.82;;
72728;SDS011;60843;52.062;4.508;2023-08-06T13:40:01;3.40;;;0.67;;
72728;SDS011;60843;52.062;4.508;2023-08-06T13:42:27;1.17;;;0.57;;
72728;SDS011;60843;52.062;4.508;2023-08-06T13:44:53;5.78;;;0.70;;
72728;SDS011;60843;52.062;4.508;2023-08-06T13:47:24;3.15;;;0.32;;
72728;SDS011;60843;52.062;4.508;2023-08-06T13:49:49;3.17;;;0.50;;
72728;SDS011;60843;52.062;4.508;2023-08-06T13:52:15;1.83;;;0.55;;
72728;SDS011;60843;52.062;4.508;2023-08-06T13:54:40;1.43;;;0.73;;
72728;SDS011;60843;52.062;4.508;2023-08-06T13:57:06;1.25;;;0.30;;
72728;SDS011;60843;52.062;4.508;2023-08-06T13:59:32;2.80;;;0.40;;
72728;SDS011;60843;52.062;4.508;2023-08-06T14:01:58;1.75;;;0.63;;
72728;SDS011;60843;52.062;4.508;2023-08-06T14:04:24;1.13;;;0.50;;
72728;SDS011;60843;52.062;4.508;2023-08-06T14:06:50;1.58;;;0.40;;
72728;SDS011;60843;52.062;4.508;2023-08-06T14:09:15;1.43;;;0.30;;
72728;SDS011;60843;52.062;4.508;2023-08-06T14:11:43;2.10;;;0.68;;
72728;SDS011;60843;52.062;4.508;2023-08-06T14:14:09;2.08;;;1.08;;
72728;SDS011;60843;52.062;4.508;2023-08-06T14:16:35;0.77;;;0.50;;
72728;SDS011;60843;52.062;4.508;2023-08-06T14:19:01;0.77;;;0.20;;
72728;SDS011;60843;52.062;4.508;2023-08-06T14:21:26;4.63;;;1.58;;
72728;SDS011;60843;52.062;4.508;2023-08-06T14:23:52;13.73;;;2.70;;
72728;SDS011;60843;52.062;4.508;2023-08-06T14:26:17;3.93;;;1.33;;
72728;SDS011;60843;52.062;4.508;2023-08-06T14:28:43;2.72;;;0.73;;
72728;SDS011;60843;52.062;4.508;2023-08-06T14:31:08;2.80;;;0.90;;
72728;SDS011;60843;52.062;4.508;2023-08-06T14:33:34;3.53;;;0.70;;
72728;SDS011;60843;52.062;4.508;2023-08-06T14:35:59;6.63;;;0.63;;
72728;SDS011;60843;52.062;4.508;2023-08-06T14:38:24;4.03;;;0.70;;
72728;SDS011;60843;52.062;4.508;2023-08-06T14:40:50;11.10;;;3.20;;
72728;SDS011;60843;52.062;4.508;2023-08-06T14:43:15;19.13;;;5.30;;
72728;SDS011;60843;52.062;4.508;2023-08-06T14:45:40;7.90;;;1.63;;
72728;SDS011;60843;52.062;4.508;2023-08-06T14:48:06;2.67;;;0.70;;
72728;SDS011;60843;52.062;4.508;2023-08-06T14:50:32;2.45;;;0.63;;
72728;SDS011;60843;52.062;4.508;2023-08-06T14:52:57;3.53;;;0.63;;
72728;SDS011;60843;52.062;4.508;2023-08-06T14:55:25;1.05;;;0.32;;
72728;SDS011;60843;52.062;4.508;2023-08-06T14:57:51;2.78;;;0.52;;